CPA121T YSSY-NZAA
Flight info
| Callsign | CPA121T |
|---|---|
| Flight time | N/A |
| Altitude | 39000 |
| Route | EVONN L521 LEGAN/N0491F410 L521 LUNBI |
| Aircraft | A35K/H-SDE2E3GHIJ3J4J5LM1ORWXY/LB1D1 |
Departure
| Time | 2026-04-21 04:24 |
|---|---|
| Airport | Sydney Kingsford Smith International Airport (YSSY) |
Arrival
| Time | N/A |
|---|---|
| Airport | Auckland International Airport (NZAA) |
| Time | Latitude | Longitude | Altitude | Speed | Heading |
|---|---|---|---|---|---|
| 2026-04-21 03:44 | -33.93828 | 151.16838 | 36 ft | 0 kts | 74° |
| 2026-04-21 04:13 | -33.93828 | 151.16835 | 36 ft | 2 kts | 74° |
| 2026-04-21 04:14 | -33.93836 | 151.16805 | 34 ft | 4 kts | 72° |
| 2026-04-21 04:14 | -33.93845 | 151.16764 | 36 ft | 4 kts | 93° |
| 2026-04-21 04:14 | -33.93843 | 151.16748 | 36 ft | 4 kts | 141° |
| 2026-04-21 04:14 | -33.93843 | 151.16745 | 35 ft | 4 kts | 163° |
| 2026-04-21 04:15 | -33.93869 | 151.16754 | 36 ft | 4 kts | 164° |
| 2026-04-21 04:15 | -33.93891 | 151.16762 | 36 ft | 2 kts | 164° |
| 2026-04-21 04:15 | -33.93916 | 151.16770 | 36 ft | 4 kts | 164° |
| 2026-04-21 04:15 | -33.93942 | 151.16779 | 36 ft | 3 kts | 164° |
| 2026-04-21 04:16 | -33.93946 | 151.16780 | 36 ft | 0 kts | 164° |
| 2026-04-21 04:18 | -33.93984 | 151.16793 | 36 ft | 12 kts | 164° |
| 2026-04-21 04:18 | -33.94043 | 151.16821 | 36 ft | 6 kts | 138° |
| 2026-04-21 04:19 | -33.94051 | 151.16881 | 36 ft | 12 kts | 77° |
| 2026-04-21 04:19 | -33.94028 | 151.16979 | 36 ft | 12 kts | 74° |
| 2026-04-21 04:19 | -33.94006 | 151.17077 | 35 ft | 12 kts | 74° |
| 2026-04-21 04:19 | -33.93983 | 151.17171 | 35 ft | 8 kts | 72° |
| 2026-04-21 04:20 | -33.93950 | 151.17211 | 35 ft | 6 kts | 21° |
| 2026-04-21 04:20 | -33.93907 | 151.17207 | 35 ft | 8 kts | 349° |
| 2026-04-21 04:20 | -33.93818 | 151.17185 | 35 ft | 18 kts | 347° |
| 2026-04-21 04:20 | -33.93670 | 151.17145 | 35 ft | 25 kts | 350° |
| 2026-04-21 04:21 | -33.93505 | 151.17104 | 35 ft | 24 kts | 348° |
| 2026-04-21 04:21 | -33.93350 | 151.17054 | 36 ft | 22 kts | 333° |
| 2026-04-21 04:21 | -33.93228 | 151.16959 | 36 ft | 20 kts | 341° |
| 2026-04-21 04:21 | -33.93100 | 151.16922 | 36 ft | 14 kts | 348° |
| 2026-04-21 04:22 | -33.93019 | 151.16915 | 36 ft | 10 kts | 20° |
| 2026-04-21 04:22 | -33.92983 | 151.16977 | 36 ft | 9 kts | 68° |
| 2026-04-21 04:22 | -33.92966 | 151.17050 | 36 ft | 9 kts | 78° |
| 2026-04-21 04:22 | -33.92957 | 151.17120 | 37 ft | 9 kts | 89° |
| 2026-04-21 04:23 | -33.92984 | 151.17170 | 36 ft | 6 kts | 154° |
| 2026-04-21 04:23 | -33.93027 | 151.17183 | 36 ft | 9 kts | 166° |
| 2026-04-21 04:23 | -33.93320 | 151.17259 | 35 ft | 82 kts | 168° |
| 2026-04-21 04:23 | -33.94116 | 151.17466 | 33 ft | 149 kts | 168° |
| 2026-04-21 04:24 | -33.95229 | 151.17790 | 486 ft | 173 kts | 164° |
| 2026-04-21 04:24 | -33.96394 | 151.18215 | 1442 ft | 178 kts | 161° |
| 2026-04-21 04:24 | -33.97726 | 151.18517 | 1850 ft | 211 kts | 174° |
| 2026-04-21 04:24 | -33.99249 | 151.18380 | 2276 ft | 229 kts | 187° |
| 2026-04-21 04:25 | -34.00857 | 151.17904 | 2760 ft | 246 kts | 192° |
| 2026-04-21 04:25 | -34.02544 | 151.17489 | 3542 ft | 245 kts | 177° |
| 2026-04-21 04:25 | -34.04195 | 151.17897 | 4363 ft | 241 kts | 162° |
| 2026-04-21 04:25 | -34.05780 | 151.18521 | 5099 ft | 244 kts | 161° |
| 2026-04-21 04:26 | -34.07414 | 151.19142 | 5840 ft | 248 kts | 163° |
| 2026-04-21 04:26 | -34.09087 | 151.19724 | 6618 ft | 251 kts | 166° |
| 2026-04-21 04:26 | -34.10792 | 151.20277 | 7329 ft | 255 kts | 165° |
| 2026-04-21 04:26 | -34.12513 | 151.20840 | 8082 ft | 257 kts | 165° |
| 2026-04-21 04:27 | -34.14253 | 151.21411 | 8790 ft | 261 kts | 165° |
| 2026-04-21 04:27 | -34.16011 | 151.22063 | 9490 ft | 266 kts | 159° |
| 2026-04-21 04:27 | -34.17665 | 151.23091 | 10219 ft | 271 kts | 147° |
| 2026-04-21 04:27 | -34.19062 | 151.24718 | 10557 ft | 291 kts | 126° |
| 2026-04-21 04:28 | -34.20051 | 151.26953 | 10817 ft | 312 kts | 115° |
| 2026-04-21 04:28 | -34.20789 | 151.29493 | 11094 ft | 329 kts | 109° |
| 2026-04-21 04:28 | -34.21405 | 151.32231 | 11349 ft | 345 kts | 107° |
| 2026-04-21 04:28 | -34.21990 | 151.35101 | 11643 ft | 357 kts | 106° |
| 2026-04-21 04:29 | -34.22590 | 151.38044 | 12156 ft | 362 kts | 106° |
| 2026-04-21 04:29 | -34.23223 | 151.41014 | 12679 ft | 366 kts | 108° |
| 2026-04-21 04:29 | -34.23877 | 151.43959 | 13222 ft | 369 kts | 108° |
| 2026-04-21 04:29 | -34.24575 | 151.47000 | 13756 ft | 372 kts | 108° |
| 2026-04-21 04:30 | -34.25281 | 151.50021 | 14263 ft | 375 kts | 108° |
| 2026-04-21 04:30 | -34.25992 | 151.53036 | 14711 ft | 379 kts | 109° |
| 2026-04-21 04:30 | -34.26719 | 151.56108 | 15188 ft | 381 kts | 109° |
| 2026-04-21 04:30 | -34.27452 | 151.59206 | 15695 ft | 384 kts | 108° |
| 2026-04-21 04:31 | -34.28184 | 151.62323 | 16197 ft | 386 kts | 108° |
| 2026-04-21 04:31 | -34.28892 | 151.65440 | 16560 ft | 380 kts | 108° |
| 2026-04-21 04:31 | -34.29588 | 151.68470 | 16963 ft | 368 kts | 110° |
| 2026-04-21 04:31 | -34.30288 | 151.71416 | 17267 ft | 365 kts | 108° |
| 2026-04-21 04:32 | -34.30999 | 151.74438 | 17498 ft | 380 kts | 108° |
| 2026-04-21 04:32 | -34.31736 | 151.77552 | 17743 ft | 390 kts | 108° |
| 2026-04-21 04:32 | -34.32472 | 151.80693 | 18115 ft | 395 kts | 108° |
| 2026-04-21 04:32 | -34.33221 | 151.83914 | 18569 ft | 399 kts | 108° |
| 2026-04-21 04:33 | -34.33972 | 151.87156 | 18968 ft | 402 kts | 108° |
| 2026-04-21 04:33 | -34.34728 | 151.90426 | 19373 ft | 405 kts | 108° |
| 2026-04-21 04:33 | -34.35486 | 151.93718 | 19802 ft | 407 kts | 108° |
| 2026-04-21 04:33 | -34.36245 | 151.97028 | 20211 ft | 409 kts | 109° |
| 2026-04-21 04:34 | -34.37011 | 152.00354 | 20636 ft | 411 kts | 109° |
| 2026-04-21 04:34 | -34.37781 | 152.03698 | 21050 ft | 414 kts | 109° |
| 2026-04-21 04:34 | -34.38556 | 152.07062 | 21443 ft | 416 kts | 109° |
| 2026-04-21 04:34 | -34.39333 | 152.10443 | 21850 ft | 418 kts | 109° |
| 2026-04-21 04:35 | -34.40113 | 152.13845 | 22242 ft | 420 kts | 109° |
| 2026-04-21 04:35 | -34.40897 | 152.17272 | 22634 ft | 422 kts | 109° |
| 2026-04-21 04:35 | -34.41680 | 152.20703 | 23010 ft | 424 kts | 109° |
| 2026-04-21 04:35 | -34.42468 | 152.24159 | 23390 ft | 426 kts | 109° |
| 2026-04-21 04:36 | -34.43255 | 152.27634 | 23764 ft | 429 kts | 110° |
| 2026-04-21 04:36 | -34.44039 | 152.31081 | 24079 ft | 431 kts | 110° |
| 2026-04-21 04:36 | -34.44838 | 152.34590 | 24367 ft | 433 kts | 110° |
| 2026-04-21 04:36 | -34.45643 | 152.38125 | 24662 ft | 435 kts | 110° |
| 2026-04-21 04:37 | -34.46448 | 152.41668 | 24951 ft | 438 kts | 110° |
| 2026-04-21 04:37 | -34.47256 | 152.45232 | 25255 ft | 440 kts | 110° |
| 2026-04-21 04:37 | -34.48067 | 152.48811 | 25547 ft | 442 kts | 109° |
| 2026-04-21 04:37 | -34.48875 | 152.52412 | 25851 ft | 444 kts | 109° |
| 2026-04-21 04:38 | -34.49682 | 152.56033 | 26167 ft | 446 kts | 109° |
| 2026-04-21 04:38 | -34.50494 | 152.59668 | 26484 ft | 448 kts | 109° |
| 2026-04-21 04:38 | -34.51317 | 152.63335 | 26812 ft | 450 kts | 109° |
| 2026-04-21 04:38 | -34.52144 | 152.67007 | 27129 ft | 452 kts | 109° |
| 2026-04-21 04:39 | -34.52972 | 152.70698 | 27473 ft | 455 kts | 109° |
| 2026-04-21 04:39 | -34.53804 | 152.74414 | 27821 ft | 457 kts | 109° |
| 2026-04-21 04:39 | -34.54638 | 152.78153 | 28166 ft | 460 kts | 110° |
| 2026-04-21 04:39 | -34.55476 | 152.81912 | 28530 ft | 463 kts | 109° |
| 2026-04-21 04:40 | -34.56315 | 152.85689 | 28928 ft | 465 kts | 110° |
| 2026-04-21 04:40 | -34.57162 | 152.89495 | 29299 ft | 468 kts | 110° |
| 2026-04-21 04:40 | -34.57995 | 152.93265 | 29665 ft | 470 kts | 110° |
| 2026-04-21 04:40 | -34.58845 | 152.97114 | 30041 ft | 473 kts | 109° |
| 2026-04-21 04:41 | -34.59699 | 153.00986 | 30397 ft | 476 kts | 109° |
| 2026-04-21 04:41 | -34.60560 | 153.04883 | 30721 ft | 479 kts | 110° |
| 2026-04-21 04:41 | -34.61423 | 153.08794 | 31048 ft | 481 kts | 110° |
| 2026-04-21 04:41 | -34.62292 | 153.12734 | 31380 ft | 484 kts | 110° |
| 2026-04-21 04:42 | -34.63163 | 153.16686 | 31725 ft | 486 kts | 110° |
| 2026-04-21 04:42 | -34.64036 | 153.20665 | 32028 ft | 489 kts | 110° |
| 2026-04-21 04:42 | -34.64910 | 153.24663 | 32326 ft | 491 kts | 110° |
| 2026-04-21 04:42 | -34.65785 | 153.28681 | 32685 ft | 491 kts | 110° |
| 2026-04-21 04:43 | -34.66657 | 153.32704 | 33132 ft | 490 kts | 110° |
| 2026-04-21 04:43 | -34.67513 | 153.36646 | 33572 ft | 489 kts | 110° |
| 2026-04-21 04:43 | -34.68378 | 153.40635 | 33987 ft | 488 kts | 110° |
| 2026-04-21 04:43 | -34.69240 | 153.44621 | 34427 ft | 487 kts | 110° |
| 2026-04-21 04:44 | -34.70097 | 153.48587 | 34823 ft | 486 kts | 110° |
| 2026-04-21 04:44 | -34.70955 | 153.52561 | 35150 ft | 486 kts | 110° |
| 2026-04-21 04:44 | -34.71814 | 153.56539 | 35490 ft | 486 kts | 110° |
| 2026-04-21 04:44 | -34.72671 | 153.60511 | 35817 ft | 486 kts | 110° |
| 2026-04-21 04:45 | -34.73527 | 153.64480 | 36150 ft | 486 kts | 110° |
| 2026-04-21 04:45 | -34.74381 | 153.68447 | 36482 ft | 486 kts | 110° |
| 2026-04-21 04:45 | -34.75234 | 153.72426 | 36808 ft | 486 kts | 109° |
| 2026-04-21 04:45 | -34.76082 | 153.76408 | 37171 ft | 485 kts | 110° |
| 2026-04-21 04:46 | -34.76931 | 153.80379 | 37539 ft | 484 kts | 110° |
| 2026-04-21 04:46 | -34.77778 | 153.84345 | 37855 ft | 484 kts | 110° |
| 2026-04-21 04:46 | -34.78622 | 153.88301 | 38161 ft | 484 kts | 110° |
| 2026-04-21 04:46 | -34.79469 | 153.92281 | 38462 ft | 484 kts | 110° |
| 2026-04-21 04:47 | -34.80313 | 153.96248 | 38742 ft | 484 kts | 110° |
| 2026-04-21 04:47 | -34.81155 | 154.00216 | 39009 ft | 484 kts | 110° |
| 2026-04-21 04:47 | -34.81984 | 154.04135 | 39207 ft | 485 kts | 109° |
| 2026-04-21 04:48 | -34.83662 | 154.12092 | 39269 ft | 484 kts | 110° |
| 2026-04-21 04:48 | -34.85330 | 154.20027 | 39268 ft | 484 kts | 110° |
| 2026-04-21 04:49 | -34.86993 | 154.27966 | 39271 ft | 484 kts | 110° |
| 2026-04-21 04:49 | -34.88651 | 154.35914 | 39284 ft | 484 kts | 109° |
| 2026-04-21 04:50 | -34.90305 | 154.43876 | 39265 ft | 483 kts | 110° |
| 2026-04-21 04:50 | -34.91950 | 154.51818 | 39397 ft | 484 kts | 110° |
| 2026-04-21 04:50 | -34.92772 | 154.55795 | 39618 ft | 484 kts | 110° |
| 2026-04-21 04:51 | -34.93594 | 154.59769 | 39827 ft | 484 kts | 110° |
| 2026-04-21 04:51 | -34.94415 | 154.63740 | 40020 ft | 484 kts | 109° |
| 2026-04-21 04:51 | -34.95229 | 154.67722 | 40231 ft | 484 kts | 110° |
| 2026-04-21 04:51 | -34.96045 | 154.71704 | 40413 ft | 484 kts | 109° |
| 2026-04-21 04:52 | -34.96848 | 154.75634 | 40610 ft | 484 kts | 110° |
| 2026-04-21 04:52 | -34.97663 | 154.79613 | 40767 ft | 484 kts | 109° |
| 2026-04-21 04:52 | -34.98478 | 154.83599 | 40928 ft | 484 kts | 110° |
| 2026-04-21 04:52 | -34.99294 | 154.87584 | 41078 ft | 485 kts | 109° |
| 2026-04-21 04:53 | -35.00106 | 154.91572 | 41228 ft | 485 kts | 109° |
| 2026-04-21 04:53 | -35.01728 | 154.99580 | 41265 ft | 486 kts | 109° |
| 2026-04-21 04:54 | -35.03586 | 155.07514 | 41256 ft | 486 kts | 114° |
| 2026-04-21 04:54 | -35.05732 | 155.15338 | 41253 ft | 486 kts | 114° |
| 2026-04-21 04:55 | -35.07847 | 155.23138 | 41257 ft | 487 kts | 114° |
| 2026-04-21 04:55 | -35.09919 | 155.31022 | 41249 ft | 487 kts | 113° |
| 2026-04-21 04:56 | -35.11962 | 155.38918 | 41250 ft | 487 kts | 113° |
| 2026-04-21 04:56 | -35.13998 | 155.46821 | 41251 ft | 487 kts | 113° |
| 2026-04-21 04:57 | -35.16030 | 155.54721 | 41248 ft | 487 kts | 113° |
| 2026-04-21 04:57 | -35.18060 | 155.62635 | 41253 ft | 488 kts | 113° |
| 2026-04-21 04:58 | -35.20074 | 155.70505 | 41244 ft | 487 kts | 112° |
| 2026-04-21 04:58 | -35.22091 | 155.78410 | 41241 ft | 487 kts | 113° |
| 2026-04-21 04:59 | -35.24105 | 155.86330 | 41240 ft | 487 kts | 113° |
| 2026-04-21 04:59 | -35.26113 | 155.94251 | 41258 ft | 488 kts | 112° |
| 2026-04-21 05:00 | -35.28117 | 156.02179 | 41237 ft | 487 kts | 112° |
| 2026-04-21 05:00 | -35.30777 | 156.12743 | 41235 ft | 487 kts | 113° |
| 2026-04-21 05:01 | -35.33092 | 156.21973 | 41233 ft | 487 kts | 112° |
| 2026-04-21 05:01 | -35.34759 | 156.28634 | 41233 ft | 487 kts | 112° |
| 2026-04-21 05:02 | -35.36728 | 156.36528 | 41227 ft | 487 kts | 112° |
| 2026-04-21 05:02 | -35.38702 | 156.44466 | 41222 ft | 487 kts | 112° |
| 2026-04-21 05:03 | -35.40673 | 156.52417 | 41219 ft | 487 kts | 112° |
| 2026-04-21 05:03 | -35.42637 | 156.60378 | 41228 ft | 487 kts | 112° |
| 2026-04-21 05:04 | -35.44590 | 156.68339 | 41211 ft | 487 kts | 112° |
| 2026-04-21 05:04 | -35.46545 | 156.76287 | 41213 ft | 487 kts | 112° |
| 2026-04-21 05:05 | -35.48496 | 156.84255 | 41212 ft | 487 kts | 112° |
| 2026-04-21 05:05 | -35.50432 | 156.92176 | 41206 ft | 487 kts | 112° |
| 2026-04-21 05:06 | -35.52372 | 157.00147 | 41208 ft | 487 kts | 112° |
| 2026-04-21 05:06 | -35.54308 | 157.08136 | 41206 ft | 487 kts | 112° |
| 2026-04-21 05:07 | -35.56237 | 157.16120 | 41197 ft | 487 kts | 112° |
| 2026-04-21 05:07 | -35.58160 | 157.24110 | 41214 ft | 487 kts | 112° |
| 2026-04-21 05:08 | -35.60080 | 157.32086 | 41201 ft | 487 kts | 112° |
| 2026-04-21 05:08 | -35.61981 | 157.40031 | 41198 ft | 487 kts | 112° |
| 2026-04-21 05:09 | -35.63885 | 157.48028 | 41198 ft | 487 kts | 112° |
| 2026-04-21 05:09 | -35.65780 | 157.56022 | 41213 ft | 487 kts | 111° |
| 2026-04-21 05:10 | -35.67676 | 157.64030 | 41195 ft | 487 kts | 111° |
| 2026-04-21 05:10 | -35.69570 | 157.72029 | 41194 ft | 487 kts | 111° |
| 2026-04-21 05:11 | -35.71454 | 157.80024 | 41196 ft | 487 kts | 111° |
| 2026-04-21 05:11 | -35.73322 | 157.87979 | 41211 ft | 487 kts | 111° |
| 2026-04-21 05:12 | -35.75197 | 157.95997 | 41186 ft | 486 kts | 111° |
| 2026-04-21 05:12 | -35.77065 | 158.04013 | 41187 ft | 486 kts | 111° |
| 2026-04-21 05:13 | -35.78876 | 158.12047 | 41182 ft | 488 kts | 108° |
| 2026-04-21 05:13 | -35.80275 | 158.20238 | 41190 ft | 490 kts | 106° |
| 2026-04-21 05:14 | -35.81570 | 158.28432 | 41178 ft | 489 kts | 106° |
| 2026-04-21 05:14 | -35.82920 | 158.36635 | 41178 ft | 488 kts | 107° |
| 2026-04-21 05:15 | -35.84309 | 158.44838 | 41178 ft | 488 kts | 107° |
| 2026-04-21 05:15 | -35.85702 | 158.53035 | 41175 ft | 488 kts | 107° |
| 2026-04-21 05:16 | -35.87087 | 158.61233 | 41170 ft | 488 kts | 107° |
| 2026-04-21 05:16 | -35.88465 | 158.69432 | 41170 ft | 488 kts | 107° |
| 2026-04-21 05:17 | -35.89838 | 158.77638 | 41165 ft | 488 kts | 106° |
| 2026-04-21 05:17 | -35.91202 | 158.85847 | 41165 ft | 488 kts | 107° |
| 2026-04-21 05:18 | -35.92548 | 158.94000 | 41161 ft | 488 kts | 106° |
| 2026-04-21 05:18 | -35.93901 | 159.02208 | 41152 ft | 488 kts | 106° |
| 2026-04-21 05:19 | -35.95253 | 159.10423 | 41153 ft | 488 kts | 106° |
| 2026-04-21 05:19 | -35.96596 | 159.18634 | 41148 ft | 488 kts | 106° |
| 2026-04-21 05:20 | -35.97932 | 159.26845 | 41145 ft | 487 kts | 106° |
| 2026-04-21 05:20 | -35.99252 | 159.34996 | 41146 ft | 487 kts | 106° |
| 2026-04-21 05:21 | -36.00576 | 159.43205 | 41138 ft | 487 kts | 106° |
| 2026-04-21 05:21 | -36.01894 | 159.51418 | 41143 ft | 487 kts | 106° |
| 2026-04-21 05:22 | -36.03201 | 159.59631 | 41141 ft | 487 kts | 105° |
| 2026-04-21 05:22 | -36.04505 | 159.67848 | 41134 ft | 487 kts | 105° |
| 2026-04-21 05:23 | -36.05806 | 159.76053 | 41132 ft | 487 kts | 105° |
| 2026-04-21 05:23 | -36.07106 | 159.84259 | 41130 ft | 487 kts | 105° |
| 2026-04-21 05:24 | -36.08395 | 159.92467 | 41131 ft | 486 kts | 105° |
| 2026-04-21 05:24 | -36.09676 | 160.00672 | 41123 ft | 486 kts | 105° |
| 2026-04-21 05:25 | -36.10939 | 160.08822 | 41121 ft | 486 kts | 104° |
| 2026-04-21 05:25 | -36.12208 | 160.17049 | 41121 ft | 486 kts | 105° |
| 2026-04-21 05:26 | -36.13475 | 160.25261 | 41113 ft | 485 kts | 105° |
| 2026-04-21 05:26 | -36.14732 | 160.33476 | 41111 ft | 485 kts | 104° |
| 2026-04-21 05:27 | -36.15981 | 160.41678 | 41110 ft | 485 kts | 104° |
| 2026-04-21 05:27 | -36.17210 | 160.49828 | 41100 ft | 485 kts | 104° |
| 2026-04-21 05:28 | -36.18450 | 160.58049 | 41100 ft | 485 kts | 104° |
| 2026-04-21 05:28 | -36.19691 | 160.66258 | 41098 ft | 485 kts | 104° |
| 2026-04-21 05:29 | -36.20921 | 160.74463 | 41091 ft | 485 kts | 104° |
| 2026-04-21 05:29 | -36.22146 | 160.82669 | 41084 ft | 485 kts | 104° |
| 2026-04-21 05:30 | -36.23358 | 160.90883 | 41090 ft | 485 kts | 104° |
| 2026-04-21 05:30 | -36.24559 | 160.99051 | 41088 ft | 485 kts | 104° |
| 2026-04-21 05:31 | -36.25766 | 161.07268 | 41081 ft | 485 kts | 103° |
| 2026-04-21 05:31 | -36.26965 | 161.15490 | 41081 ft | 485 kts | 103° |
| 2026-04-21 05:32 | -36.28162 | 161.23723 | 41090 ft | 485 kts | 103° |
| 2026-04-21 05:32 | -36.29355 | 161.31953 | 41072 ft | 485 kts | 103° |
| 2026-04-21 05:33 | -36.30537 | 161.40179 | 41075 ft | 485 kts | 103° |
| 2026-04-21 05:33 | -36.31706 | 161.48415 | 41070 ft | 485 kts | 103° |
| 2026-04-21 05:34 | -36.32879 | 161.56647 | 41076 ft | 485 kts | 103° |
| 2026-04-21 05:34 | -36.34039 | 161.64852 | 41066 ft | 485 kts | 103° |
| 2026-04-21 05:35 | -36.35191 | 161.73102 | 41066 ft | 485 kts | 103° |
| 2026-04-21 05:35 | -36.36361 | 161.81350 | 41063 ft | 485 kts | 103° |
| 2026-04-21 05:36 | -36.37508 | 161.89610 | 41061 ft | 485 kts | 102° |
| 2026-04-21 05:36 | -36.38637 | 161.97870 | 41057 ft | 485 kts | 103° |
| 2026-04-21 05:37 | -36.39779 | 162.06135 | 41054 ft | 485 kts | 103° |
| 2026-04-21 05:37 | -36.40921 | 162.14398 | 41049 ft | 485 kts | 103° |
| 2026-04-21 05:38 | -36.42043 | 162.22604 | 41047 ft | 485 kts | 103° |
| 2026-04-21 05:38 | -36.43167 | 162.30878 | 41047 ft | 486 kts | 102° |
| 2026-04-21 05:39 | -36.44283 | 162.39152 | 41045 ft | 486 kts | 102° |
| 2026-04-21 05:39 | -36.45396 | 162.47445 | 41042 ft | 486 kts | 102° |
| 2026-04-21 05:40 | -36.46504 | 162.55741 | 41037 ft | 486 kts | 102° |
| 2026-04-21 05:40 | -36.47604 | 162.64028 | 41041 ft | 486 kts | 102° |
| 2026-04-21 05:41 | -36.48698 | 162.72324 | 41034 ft | 487 kts | 102° |
| 2026-04-21 05:41 | -36.49788 | 162.80621 | 41034 ft | 487 kts | 102° |
| 2026-04-21 05:42 | -36.50865 | 162.88872 | 41029 ft | 487 kts | 102° |
| 2026-04-21 05:42 | -36.51945 | 162.97182 | 41031 ft | 487 kts | 102° |
| 2026-04-21 05:43 | -36.53017 | 163.05487 | 41023 ft | 487 kts | 102° |
| 2026-04-21 05:43 | -36.54084 | 163.13802 | 41018 ft | 487 kts | 102° |
| 2026-04-21 05:44 | -36.55137 | 163.22121 | 41018 ft | 487 kts | 102° |
| 2026-04-21 05:44 | -36.56192 | 163.30445 | 41033 ft | 487 kts | 102° |
| 2026-04-21 05:45 | -36.57259 | 163.38760 | 41011 ft | 488 kts | 101° |
| 2026-04-21 05:45 | -36.58296 | 163.47058 | 41010 ft | 488 kts | 101° |
| 2026-04-21 05:46 | -36.59338 | 163.55412 | 41009 ft | 488 kts | 101° |
| 2026-04-21 05:46 | -36.60374 | 163.63758 | 41010 ft | 488 kts | 101° |
| 2026-04-21 05:47 | -36.61403 | 163.72105 | 41009 ft | 488 kts | 101° |
| 2026-04-21 05:47 | -36.62424 | 163.80455 | 41002 ft | 488 kts | 101° |
| 2026-04-21 05:48 | -36.63439 | 163.88802 | 41001 ft | 488 kts | 101° |
| 2026-04-21 05:48 | -36.64448 | 163.97156 | 40998 ft | 488 kts | 101° |
| 2026-04-21 05:49 | -36.65448 | 164.05469 | 41000 ft | 488 kts | 101° |
| 2026-04-21 05:49 | -36.66453 | 164.13845 | 40997 ft | 489 kts | 100° |
| 2026-04-21 05:50 | -36.67280 | 164.20865 | 40996 ft | 489 kts | 100° |
| 2026-04-21 05:50 | -36.68268 | 164.29236 | 40989 ft | 489 kts | 100° |
| 2026-04-21 05:51 | -36.69247 | 164.37565 | 40988 ft | 489 kts | 100° |
| 2026-04-21 05:51 | -36.70227 | 164.45968 | 40985 ft | 490 kts | 100° |
| 2026-04-21 05:52 | -36.71206 | 164.54381 | 40989 ft | 491 kts | 100° |
| 2026-04-21 05:52 | -36.72175 | 164.62809 | 40984 ft | 491 kts | 99° |
| 2026-04-21 05:53 | -36.73132 | 164.71232 | 40984 ft | 491 kts | 99° |
| 2026-04-21 05:53 | -36.74089 | 164.79676 | 40985 ft | 491 kts | 100° |
| 2026-04-21 05:54 | -36.75040 | 164.88071 | 40989 ft | 492 kts | 99° |
| 2026-04-21 05:54 | -36.75990 | 164.96517 | 40986 ft | 492 kts | 99° |
| 2026-04-21 05:55 | -36.76933 | 165.04964 | 40988 ft | 492 kts | 99° |
| 2026-04-21 05:55 | -36.77870 | 165.13421 | 40980 ft | 493 kts | 99° |
| 2026-04-21 05:56 | -36.78801 | 165.21893 | 40976 ft | 493 kts | 99° |
| 2026-04-21 05:56 | -36.79727 | 165.30373 | 40973 ft | 493 kts | 99° |
| 2026-04-21 05:57 | -36.80648 | 165.38870 | 40985 ft | 494 kts | 99° |
| 2026-04-21 05:57 | -36.81568 | 165.47372 | 40985 ft | 494 kts | 99° |
| 2026-04-21 05:58 | -36.82472 | 165.55831 | 40977 ft | 494 kts | 99° |
| 2026-04-21 05:58 | -36.83374 | 165.64336 | 40972 ft | 494 kts | 99° |
| 2026-04-21 05:59 | -36.84272 | 165.72846 | 40975 ft | 494 kts | 99° |
| 2026-04-21 06:00 | -36.85609 | 165.85620 | 40976 ft | 496 kts | 98° |
| 2026-04-21 06:00 | -36.86495 | 165.94166 | 40974 ft | 497 kts | 99° |
| 2026-04-21 06:01 | -36.87377 | 166.02727 | 40972 ft | 497 kts | 98° |
| 2026-04-21 06:01 | -36.88252 | 166.11289 | 40967 ft | 496 kts | 98° |
| 2026-04-21 06:02 | -36.89122 | 166.19857 | 40969 ft | 497 kts | 98° |
| 2026-04-21 06:02 | -36.89982 | 166.28396 | 40968 ft | 498 kts | 98° |
| 2026-04-21 06:03 | -36.90847 | 166.37040 | 40966 ft | 498 kts | 98° |
| 2026-04-21 06:03 | -36.91695 | 166.45567 | 40965 ft | 498 kts | 98° |
| 2026-04-21 06:04 | -36.92546 | 166.54174 | 40972 ft | 499 kts | 98° |
| 2026-04-21 06:04 | -36.93388 | 166.62793 | 40968 ft | 500 kts | 98° |
| 2026-04-21 06:05 | -36.94223 | 166.71425 | 40969 ft | 500 kts | 98° |
| 2026-04-21 06:05 | -36.95059 | 166.80071 | 40967 ft | 500 kts | 97° |
| 2026-04-21 06:06 | -36.95885 | 166.88702 | 40972 ft | 501 kts | 97° |
| 2026-04-21 06:06 | -36.96706 | 166.97351 | 40970 ft | 501 kts | 97° |
| 2026-04-21 06:07 | -36.97520 | 167.06019 | 40964 ft | 502 kts | 97° |
| 2026-04-21 06:07 | -36.98333 | 167.14686 | 40963 ft | 502 kts | 97° |
| 2026-04-21 06:08 | -36.99129 | 167.23312 | 40971 ft | 501 kts | 97° |
| 2026-04-21 06:08 | -36.99926 | 167.32005 | 40964 ft | 505 kts | 97° |
| 2026-04-21 06:09 | -37.00721 | 167.40737 | 40966 ft | 505 kts | 97° |
| 2026-04-21 06:09 | -37.01512 | 167.49487 | 40968 ft | 505 kts | 97° |
| 2026-04-21 06:10 | -37.02296 | 167.58239 | 40965 ft | 505 kts | 96° |
| 2026-04-21 06:10 | -37.03068 | 167.66939 | 40967 ft | 506 kts | 97° |
| 2026-04-21 06:11 | -37.03840 | 167.75699 | 40963 ft | 506 kts | 97° |
| 2026-04-21 06:11 | -37.04606 | 167.84471 | 40963 ft | 507 kts | 97° |
| 2026-04-21 06:12 | -37.05365 | 167.93241 | 40958 ft | 506 kts | 96° |
| 2026-04-21 06:12 | -37.06119 | 168.02023 | 40955 ft | 508 kts | 96° |
| 2026-04-21 06:13 | -37.06865 | 168.10797 | 40954 ft | 511 kts | 96° |
| 2026-04-21 06:13 | -37.07611 | 168.19632 | 40958 ft | 510 kts | 96° |
| 2026-04-21 06:14 | -37.08350 | 168.28478 | 40955 ft | 509 kts | 96° |
| 2026-04-21 06:14 | -37.09081 | 168.37309 | 40947 ft | 511 kts | 96° |
| 2026-04-21 06:15 | -37.09807 | 168.46163 | 40953 ft | 511 kts | 96° |
| 2026-04-21 06:15 | -37.10526 | 168.54999 | 40942 ft | 512 kts | 96° |
| 2026-04-21 06:16 | -37.11241 | 168.63878 | 40946 ft | 513 kts | 96° |
| 2026-04-21 06:16 | -37.11949 | 168.72753 | 40942 ft | 512 kts | 96° |
| 2026-04-21 06:17 | -37.12651 | 168.81641 | 40944 ft | 512 kts | 95° |
| 2026-04-21 06:17 | -37.13347 | 168.90543 | 40955 ft | 514 kts | 96° |
| 2026-04-21 06:18 | -37.14037 | 168.99451 | 40951 ft | 514 kts | 95° |
| 2026-04-21 06:18 | -37.14718 | 169.08324 | 40950 ft | 513 kts | 95° |
| 2026-04-21 06:19 | -37.15396 | 169.17238 | 40946 ft | 513 kts | 95° |
| 2026-04-21 06:19 | -37.16065 | 169.26137 | 40947 ft | 514 kts | 95° |
| 2026-04-21 06:20 | -37.16728 | 169.35053 | 40946 ft | 513 kts | 95° |
| 2026-04-21 06:20 | -37.17387 | 169.43977 | 40948 ft | 513 kts | 95° |
| 2026-04-21 06:21 | -37.18023 | 169.52711 | 40947 ft | 515 kts | 95° |
| 2026-04-21 06:21 | -37.18667 | 169.61637 | 40932 ft | 514 kts | 95° |
| 2026-04-21 06:22 | -37.19304 | 169.70571 | 40931 ft | 513 kts | 95° |
| 2026-04-21 06:22 | -37.19937 | 169.79522 | 40936 ft | 515 kts | 95° |
| 2026-04-21 06:23 | -37.20559 | 169.88412 | 40938 ft | 516 kts | 95° |
| 2026-04-21 06:23 | -37.21178 | 169.97382 | 40930 ft | 515 kts | 94° |
| 2026-04-21 06:24 | -37.21793 | 170.06373 | 40936 ft | 516 kts | 94° |
| 2026-04-21 06:24 | -37.22399 | 170.15357 | 40928 ft | 518 kts | 94° |
| 2026-04-21 06:25 | -37.23000 | 170.24357 | 40930 ft | 518 kts | 94° |
| 2026-04-21 06:25 | -37.23596 | 170.33379 | 40920 ft | 517 kts | 94° |
| 2026-04-21 06:26 | -37.24182 | 170.42339 | 40930 ft | 519 kts | 94° |
| 2026-04-21 06:26 | -37.24763 | 170.51346 | 40935 ft | 519 kts | 94° |
| 2026-04-21 06:27 | -37.25338 | 170.60368 | 40920 ft | 518 kts | 94° |
| 2026-04-21 06:27 | -37.25593 | 170.69413 | 40912 ft | 517 kts | 87° |
| 2026-04-21 06:28 | -37.25337 | 170.78453 | 40902 ft | 517 kts | 86° |
| 2026-04-21 06:28 | -37.25072 | 170.87495 | 40904 ft | 518 kts | 86° |
| 2026-04-21 06:29 | -37.24807 | 170.96539 | 40901 ft | 519 kts | 86° |
| 2026-04-21 06:29 | -37.24536 | 171.05618 | 40903 ft | 521 kts | 86° |
| 2026-04-21 06:30 | -37.24260 | 171.14654 | 40899 ft | 521 kts | 86° |
| 2026-04-21 06:30 | -37.23976 | 171.23764 | 40909 ft | 521 kts | 86° |
| 2026-04-21 06:31 | -37.23684 | 171.32851 | 40908 ft | 521 kts | 86° |
| 2026-04-21 06:31 | -37.23386 | 171.41939 | 40893 ft | 522 kts | 86° |
| 2026-04-21 06:32 | -37.23081 | 171.51039 | 40900 ft | 522 kts | 85° |
| 2026-04-21 06:32 | -37.22772 | 171.60139 | 40903 ft | 521 kts | 86° |
| 2026-04-21 06:33 | -37.22454 | 171.69169 | 40893 ft | 522 kts | 85° |
| 2026-04-21 06:33 | -37.22123 | 171.78340 | 40894 ft | 523 kts | 85° |
| 2026-04-21 06:34 | -37.21792 | 171.87385 | 40864 ft | 521 kts | 85° |
| 2026-04-21 06:34 | -37.21625 | 171.91899 | 40408 ft | 515 kts | 85° |
| 2026-04-21 06:34 | -37.21455 | 171.96403 | 39612 ft | 518 kts | 85° |
| 2026-04-21 06:34 | -37.21341 | 171.99397 | 39112 ft | 520 kts | 85° |
| 2026-04-21 06:35 | -37.21167 | 172.03948 | 38193 ft | 524 kts | 85° |
| 2026-04-21 06:35 | -37.20930 | 172.10051 | 37083 ft | 523 kts | 85° |
| 2026-04-21 06:35 | -37.20810 | 172.13072 | 36436 ft | 524 kts | 86° |
| 2026-04-21 06:35 | -37.20630 | 172.17620 | 35749 ft | 519 kts | 86° |
| 2026-04-21 06:36 | -37.20449 | 172.22138 | 34975 ft | 517 kts | 86° |
| 2026-04-21 06:36 | -37.20268 | 172.26619 | 34292 ft | 508 kts | 87° |
| 2026-04-21 06:36 | -37.20091 | 172.30994 | 33125 ft | 497 kts | 87° |
| 2026-04-21 06:36 | -37.19917 | 172.35246 | 32299 ft | 478 kts | 88° |
| 2026-04-21 06:37 | -37.19747 | 172.39350 | 31543 ft | 467 kts | 88° |
| 2026-04-21 06:37 | -37.19578 | 172.43429 | 30772 ft | 470 kts | 88° |
| 2026-04-21 06:37 | -37.19411 | 172.47471 | 29972 ft | 470 kts | 88° |
| 2026-04-21 06:37 | -37.19241 | 172.51572 | 29052 ft | 470 kts | 89° |
| 2026-04-21 06:38 | -37.19066 | 172.55651 | 28357 ft | 465 kts | 89° |
| 2026-04-21 06:38 | -37.18893 | 172.59669 | 27796 ft | 458 kts | 88° |
| 2026-04-21 06:38 | -37.18720 | 172.63633 | 27232 ft | 453 kts | 89° |
| 2026-04-21 06:38 | -37.18550 | 172.67568 | 26666 ft | 451 kts | 88° |
| 2026-04-21 06:39 | -37.18378 | 172.71478 | 26086 ft | 449 kts | 89° |
| 2026-04-21 06:39 | -37.18206 | 172.75379 | 25524 ft | 446 kts | 89° |
| 2026-04-21 06:39 | -37.18033 | 172.79252 | 24949 ft | 443 kts | 89° |
| 2026-04-21 06:39 | -37.17860 | 172.83109 | 24393 ft | 441 kts | 89° |
| 2026-04-21 06:40 | -37.17687 | 172.86937 | 23833 ft | 439 kts | 89° |
| 2026-04-21 06:40 | -37.17514 | 172.90749 | 23236 ft | 437 kts | 89° |
| 2026-04-21 06:40 | -37.17344 | 172.94540 | 22642 ft | 433 kts | 89° |
| 2026-04-21 06:40 | -37.17165 | 172.98294 | 22079 ft | 429 kts | 89° |
| 2026-04-21 06:41 | -37.16994 | 173.01964 | 21531 ft | 426 kts | 88° |
| 2026-04-21 06:41 | -37.16822 | 173.05652 | 20976 ft | 421 kts | 90° |
| 2026-04-21 06:41 | -37.16651 | 173.09307 | 20425 ft | 418 kts | 89° |
| 2026-04-21 06:41 | -37.16479 | 173.12940 | 19876 ft | 414 kts | 89° |
| 2026-04-21 06:42 | -37.16310 | 173.16532 | 19288 ft | 412 kts | 89° |
| 2026-04-21 06:42 | -37.16162 | 173.20122 | 18616 ft | 411 kts | 90° |
| 2026-04-21 06:42 | -37.16055 | 173.23714 | 17780 ft | 414 kts | 91° |
| 2026-04-21 06:42 | -37.16019 | 173.27354 | 16651 ft | 421 kts | 93° |
| 2026-04-21 06:43 | -37.16109 | 173.31063 | 15053 ft | 434 kts | 95° |
| 2026-04-21 06:43 | -33.93927 | 151.17414 | 13592 ft | 137 kts | 169° |